sensor_id;sensor_type;location;lat;lon;timestamp;P1;durP1;ratioP1;P2;durP2;ratioP2
15454;SDS011;21057;51.024;7.540;2023-04-24T00:00:34;20.40;;;19.30;;
15454;SDS011;21057;51.024;7.540;2023-04-24T00:03:03;20.47;;;19.37;;
15454;SDS011;21057;51.024;7.540;2023-04-24T00:05:47;20.90;;;19.80;;
15454;SDS011;21057;51.024;7.540;2023-04-24T00:08:14;20.63;;;19.53;;
15454;SDS011;21057;51.024;7.540;2023-04-24T00:10:43;21.07;;;19.97;;
15454;SDS011;21057;51.024;7.540;2023-04-24T00:13:11;20.57;;;19.47;;
15454;SDS011;21057;51.024;7.540;2023-04-24T00:15:38;20.57;;;19.47;;
15454;SDS011;21057;51.024;7.540;2023-04-24T00:18:05;20.80;;;19.70;;
15454;SDS011;21057;51.024;7.540;2023-04-24T00:20:31;21.40;;;20.30;;
15454;SDS011;21057;51.024;7.540;2023-04-24T00:23:00;21.00;;;19.80;;
15454;SDS011;21057;51.024;7.540;2023-04-24T00:25:27;21.53;;;20.43;;
15454;SDS011;21057;51.024;7.540;2023-04-24T00:27:56;21.07;;;19.97;;
15454;SDS011;21057;51.024;7.540;2023-04-24T00:30:23;20.37;;;19.27;;
15454;SDS011;21057;51.024;7.540;2023-04-24T00:32:50;20.57;;;19.47;;
15454;SDS011;21057;51.024;7.540;2023-04-24T00:35:16;19.77;;;18.70;;
15454;SDS011;21057;51.024;7.540;2023-04-24T00:37:44;20.73;;;19.40;;
15454;SDS011;21057;51.024;7.540;2023-04-24T00:40:11;19.70;;;18.60;;
15454;SDS011;21057;51.024;7.540;2023-04-24T00:42:38;20.47;;;19.27;;
15454;SDS011;21057;51.024;7.540;2023-04-24T00:45:08;19.80;;;18.80;;
15454;SDS011;21057;51.024;7.540;2023-04-24T00:47:35;19.93;;;18.93;;
15454;SDS011;21057;51.024;7.540;2023-04-24T00:50:03;20.70;;;19.60;;
15454;SDS011;21057;51.024;7.540;2023-04-24T00:52:32;20.30;;;19.20;;
15454;SDS011;21057;51.024;7.540;2023-04-24T00:54:59;20.53;;;19.43;;
15454;SDS011;21057;51.024;7.540;2023-04-24T00:57:26;20.90;;;19.70;;
15454;SDS011;21057;51.024;7.540;2023-04-24T00:59:53;20.63;;;19.53;;
15454;SDS011;21057;51.024;7.540;2023-04-24T01:02:23;20.47;;;19.37;;
15454;SDS011;21057;51.024;7.540;2023-04-24T01:04:50;20.27;;;19.13;;
15454;SDS011;21057;51.024;7.540;2023-04-24T01:07:18;20.17;;;19.07;;
15454;SDS011;21057;51.024;7.540;2023-04-24T01:09:46;20.43;;;19.33;;
15454;SDS011;21057;51.024;7.540;2023-04-24T01:12:16;20.20;;;19.10;;
15454;SDS011;21057;51.024;7.540;2023-04-24T01:14:43;20.70;;;19.60;;
15454;SDS011;21057;51.024;7.540;2023-04-24T01:17:11;20.40;;;19.30;;
15454;SDS011;21057;51.024;7.540;2023-04-24T01:19:39;20.53;;;19.43;;
15454;SDS011;21057;51.024;7.540;2023-04-24T01:22:11;20.80;;;19.70;;
15454;SDS011;21057;51.024;7.540;2023-04-24T01:24:39;21.27;;;20.17;;
15454;SDS011;21057;51.024;7.540;2023-04-24T01:27:06;21.23;;;20.13;;
15454;SDS011;21057;51.024;7.540;2023-04-24T01:29:34;21.90;;;20.70;;
15454;SDS011;21057;51.024;7.540;2023-04-24T01:32:01;21.87;;;20.67;;
15454;SDS011;21057;51.024;7.540;2023-04-24T01:34:28;21.50;;;20.40;;
15454;SDS011;21057;51.024;7.540;2023-04-24T01:36:56;21.50;;;20.30;;
15454;SDS011;21057;51.024;7.540;2023-04-24T01:39:25;22.10;;;20.90;;
15454;SDS011;21057;51.024;7.540;2023-04-24T01:41:53;21.03;;;19.83;;
15454;SDS011;21057;51.024;7.540;2023-04-24T01:46:59;22.07;;;20.80;;
15454;SDS011;21057;51.024;7.540;2023-04-24T01:49:27;22.50;;;21.30;;
15454;SDS011;21057;51.024;7.540;2023-04-24T01:51:54;22.97;;;21.77;;
15454;SDS011;21057;51.024;7.540;2023-04-24T01:54:37;23.07;;;21.67;;
15454;SDS011;21057;51.024;7.540;2023-04-24T01:57:04;23.17;;;21.97;;
15454;SDS011;21057;51.024;7.540;2023-04-24T01:59:32;22.27;;;21.07;;
15454;SDS011;21057;51.024;7.540;2023-04-24T02:02:01;22.87;;;21.67;;
15454;SDS011;21057;51.024;7.540;2023-04-24T02:04:28;22.67;;;21.47;;
15454;SDS011;21057;51.024;7.540;2023-04-24T02:06:55;23.87;;;22.57;;
15454;SDS011;21057;51.024;7.540;2023-04-24T02:09:37;23.33;;;22.13;;
15454;SDS011;21057;51.024;7.540;2023-04-24T02:12:04;24.50;;;23.20;;
15454;SDS011;21057;51.024;7.540;2023-04-24T02:14:38;22.43;;;21.13;;
15454;SDS011;21057;51.024;7.540;2023-04-24T02:17:05;23.50;;;22.10;;
15454;SDS011;21057;51.024;7.540;2023-04-24T02:19:33;24.03;;;22.67;;
15454;SDS011;21057;51.024;7.540;2023-04-24T02:22:00;25.03;;;23.73;;
15454;SDS011;21057;51.024;7.540;2023-04-24T02:24:27;24.90;;;23.60;;
15454;SDS011;21057;51.024;7.540;2023-04-24T02:26:55;24.87;;;23.53;;
15454;SDS011;21057;51.024;7.540;2023-04-24T02:32:02;24.87;;;23.47;;
15454;SDS011;21057;51.024;7.540;2023-04-24T02:34:37;24.67;;;23.37;;
15454;SDS011;21057;51.024;7.540;2023-04-24T02:37:04;25.33;;;24.03;;
15454;SDS011;21057;51.024;7.540;2023-04-24T02:39:37;24.43;;;22.93;;
15454;SDS011;21057;51.024;7.540;2023-04-24T02:42:05;26.77;;;25.37;;
15454;SDS011;21057;51.024;7.540;2023-04-24T02:44:42;27.17;;;25.57;;
15454;SDS011;21057;51.024;7.540;2023-04-24T02:47:08;26.73;;;25.33;;
15454;SDS011;21057;51.024;7.540;2023-04-24T02:49:35;28.00;;;26.60;;
15454;SDS011;21057;51.024;7.540;2023-04-24T02:52:02;27.37;;;25.97;;
15454;SDS011;21057;51.024;7.540;2023-04-24T02:54:29;25.07;;;23.73;;
15454;SDS011;21057;51.024;7.540;2023-04-24T02:56:56;25.70;;;24.30;;
15454;SDS011;21057;51.024;7.540;2023-04-24T02:59:24;24.90;;;23.50;;
15454;SDS011;21057;51.024;7.540;2023-04-24T03:02:06;26.07;;;24.67;;
15454;SDS011;21057;51.024;7.540;2023-04-24T03:04:33;25.60;;;24.20;;
15454;SDS011;21057;51.024;7.540;2023-04-24T03:07:03;24.30;;;23.00;;
15454;SDS011;21057;51.024;7.540;2023-04-24T03:09:30;24.20;;;22.80;;
15454;SDS011;21057;51.024;7.540;2023-04-24T03:11:57;23.80;;;22.23;;
15454;SDS011;21057;51.024;7.540;2023-04-24T03:14:25;23.07;;;21.67;;
15454;SDS011;21057;51.024;7.540;2023-04-24T03:16:52;22.87;;;21.43;;
15454;SDS011;21057;51.024;7.540;2023-04-24T03:19:19;23.33;;;21.93;;
15454;SDS011;21057;51.024;7.540;2023-04-24T03:21:54;22.73;;;21.40;;
15454;SDS011;21057;51.024;7.540;2023-04-24T03:24:21;23.87;;;22.40;;
15454;SDS011;21057;51.024;7.540;2023-04-24T03:26:48;23.20;;;21.80;;
15454;SDS011;21057;51.024;7.540;2023-04-24T03:29:15;22.13;;;20.73;;
15454;SDS011;21057;51.024;7.540;2023-04-24T03:31:47;23.20;;;21.70;;
15454;SDS011;21057;51.024;7.540;2023-04-24T03:34:14;22.93;;;21.43;;
15454;SDS011;21057;51.024;7.540;2023-04-24T03:36:41;24.17;;;22.47;;
15454;SDS011;21057;51.024;7.540;2023-04-24T03:39:07;23.57;;;22.00;;
15454;SDS011;21057;51.024;7.540;2023-04-24T03:41:52;23.50;;;22.10;;
15454;SDS011;21057;51.024;7.540;2023-04-24T03:44:19;23.67;;;22.27;;
15454;SDS011;21057;51.024;7.540;2023-04-24T03:46:45;23.60;;;22.03;;
15454;SDS011;21057;51.024;7.540;2023-04-24T03:49:13;22.77;;;21.37;;
15454;SDS011;21057;51.024;7.540;2023-04-24T03:51:52;23.57;;;22.17;;
15454;SDS011;21057;51.024;7.540;2023-04-24T03:54:19;23.40;;;21.90;;
15454;SDS011;21057;51.024;7.540;2023-04-24T03:56:47;24.40;;;22.70;;
15454;SDS011;21057;51.024;7.540;2023-04-24T03:59:14;22.73;;;21.17;;
15454;SDS011;21057;51.024;7.540;2023-04-24T04:01:43;22.80;;;21.30;;
15454;SDS011;21057;51.024;7.540;2023-04-24T04:04:11;22.17;;;20.87;;
15454;SDS011;21057;51.024;7.540;2023-04-24T04:06:38;22.73;;;21.33;;
15454;SDS011;21057;51.024;7.540;2023-04-24T04:09:05;22.47;;;20.97;;
15454;SDS011;21057;51.024;7.540;2023-04-24T04:11:33;22.20;;;20.80;;
15454;SDS011;21057;51.024;7.540;2023-04-24T04:14:00;22.67;;;21.27;;
15454;SDS011;21057;51.024;7.540;2023-04-24T04:16:27;22.33;;;20.93;;
15454;SDS011;21057;51.024;7.540;2023-04-24T04:18:54;23.93;;;22.03;;
15454;SDS011;21057;51.024;7.540;2023-04-24T04:21:34;22.20;;;20.63;;
15454;SDS011;21057;51.024;7.540;2023-04-24T04:24:01;23.33;;;21.63;;
15454;SDS011;21057;51.024;7.540;2023-04-24T04:26:31;22.90;;;21.30;;
15454;SDS011;21057;51.024;7.540;2023-04-24T04:28:58;23.73;;;21.87;;
15454;SDS011;21057;51.024;7.540;2023-04-24T04:31:27;24.20;;;22.33;;
15454;SDS011;21057;51.024;7.540;2023-04-24T04:33:53;24.17;;;22.57;;
15454;SDS011;21057;51.024;7.540;2023-04-24T04:36:21;24.13;;;22.33;;
15454;SDS011;21057;51.024;7.540;2023-04-24T04:38:58;22.83;;;21.43;;
15454;SDS011;21057;51.024;7.540;2023-04-24T04:41:25;23.97;;;22.27;;
15454;SDS011;21057;51.024;7.540;2023-04-24T04:43:52;24.90;;;23.00;;
15454;SDS011;21057;51.024;7.540;2023-04-24T04:46:18;24.17;;;22.50;;
15454;SDS011;21057;51.024;7.540;2023-04-24T04:48:46;23.83;;;22.33;;
15454;SDS011;21057;51.024;7.540;2023-04-24T04:51:13;26.47;;;24.50;;
15454;SDS011;21057;51.024;7.540;2023-04-24T04:53:40;24.63;;;23.07;;
15454;SDS011;21057;51.024;7.540;2023-04-24T04:56:08;25.13;;;23.50;;
15454;SDS011;21057;51.024;7.540;2023-04-24T04:58:41;24.73;;;23.00;;
15454;SDS011;21057;51.024;7.540;2023-04-24T05:01:08;22.90;;;21.47;;
15454;SDS011;21057;51.024;7.540;2023-04-24T05:03:42;24.20;;;22.70;;
15454;SDS011;21057;51.024;7.540;2023-04-24T05:06:08;23.63;;;21.93;;
15454;SDS011;21057;51.024;7.540;2023-04-24T05:11:25;23.07;;;21.50;;
15454;SDS011;21057;51.024;7.540;2023-04-24T05:13:52;23.97;;;22.50;;
15454;SDS011;21057;51.024;7.540;2023-04-24T05:16:20;23.83;;;22.23;;
15454;SDS011;21057;51.024;7.540;2023-04-24T05:18:48;24.17;;;22.77;;
15454;SDS011;21057;51.024;7.540;2023-04-24T05:21:15;25.53;;;23.83;;
15454;SDS011;21057;51.024;7.540;2023-04-24T05:26:20;26.27;;;23.83;;
15454;SDS011;21057;51.024;7.540;2023-04-24T05:28:49;24.47;;;22.87;;
15454;SDS011;21057;51.024;7.540;2023-04-24T05:31:16;25.13;;;23.43;;
15454;SDS011;21057;51.024;7.540;2023-04-24T05:33:43;24.83;;;22.93;;
15454;SDS011;21057;51.024;7.540;2023-04-24T05:36:10;23.87;;;22.37;;
15454;SDS011;21057;51.024;7.540;2023-04-24T05:38:36;24.40;;;22.90;;
15454;SDS011;21057;51.024;7.540;2023-04-24T05:41:03;23.47;;;21.90;;
15454;SDS011;21057;51.024;7.540;2023-04-24T05:43:31;23.50;;;21.93;;
15454;SDS011;21057;51.024;7.540;2023-04-24T05:45:59;23.60;;;21.77;;
15454;SDS011;21057;51.024;7.540;2023-04-24T05:48:32;23.97;;;22.27;;
15454;SDS011;21057;51.024;7.540;2023-04-24T05:50:59;24.27;;;22.30;;
15454;SDS011;21057;51.024;7.540;2023-04-24T05:53:27;23.80;;;22.17;;
15454;SDS011;21057;51.024;7.540;2023-04-24T05:55:54;22.90;;;21.40;;
15454;SDS011;21057;51.024;7.540;2023-04-24T05:58:37;23.80;;;21.90;;
15454;SDS011;21057;51.024;7.540;2023-04-24T06:01:06;24.30;;;22.60;;
15454;SDS011;21057;51.024;7.540;2023-04-24T06:03:33;23.73;;;22.13;;
15454;SDS011;21057;51.024;7.540;2023-04-24T06:06:02;23.17;;;21.67;;
15454;SDS011;21057;51.024;7.540;2023-04-24T06:08:29;24.07;;;22.47;;
15454;SDS011;21057;51.024;7.540;2023-04-24T06:11:09;25.27;;;23.50;;
15454;SDS011;21057;51.024;7.540;2023-04-24T06:13:36;26.13;;;24.23;;
15454;SDS011;21057;51.024;7.540;2023-04-24T06:16:02;24.93;;;23.33;;
15454;SDS011;21057;51.024;7.540;2023-04-24T06:18:31;24.60;;;22.83;;
15454;SDS011;21057;51.024;7.540;2023-04-24T06:21:04;25.47;;;23.77;;
15454;SDS011;21057;51.024;7.540;2023-04-24T06:23:31;25.13;;;23.43;;
15454;SDS011;21057;51.024;7.540;2023-04-24T06:25:58;24.90;;;23.20;;
15454;SDS011;21057;51.024;7.540;2023-04-24T06:28:25;25.57;;;23.83;;
15454;SDS011;21057;51.024;7.540;2023-04-24T06:30:52;24.57;;;23.03;;
15454;SDS011;21057;51.024;7.540;2023-04-24T06:33:19;26.37;;;23.90;;
15454;SDS011;21057;51.024;7.540;2023-04-24T06:35:47;25.17;;;23.47;;
15454;SDS011;21057;51.024;7.540;2023-04-24T06:38:14;25.80;;;24.10;;
15454;SDS011;21057;51.024;7.540;2023-04-24T06:40:41;24.97;;;23.27;;
15454;SDS011;21057;51.024;7.540;2023-04-24T06:43:08;25.30;;;23.53;;
15454;SDS011;21057;51.024;7.540;2023-04-24T06:45:36;25.43;;;23.63;;
15454;SDS011;21057;51.024;7.540;2023-04-24T06:48:04;26.60;;;24.43;;
15454;SDS011;21057;51.024;7.540;2023-04-24T06:50:33;25.03;;;23.30;;
15454;SDS011;21057;51.024;7.540;2023-04-24T06:53:01;24.47;;;22.87;;
15454;SDS011;21057;51.024;7.540;2023-04-24T06:55:28;25.27;;;23.57;;
15454;SDS011;21057;51.024;7.540;2023-04-24T06:57:55;24.97;;;23.37;;
15454;SDS011;21057;51.024;7.540;2023-04-24T07:00:22;25.03;;;23.33;;
15454;SDS011;21057;51.024;7.540;2023-04-24T07:02:49;24.80;;;23.20;;
15454;SDS011;21057;51.024;7.540;2023-04-24T07:05:16;24.73;;;23.23;;
15454;SDS011;21057;51.024;7.540;2023-04-24T07:07:45;25.73;;;23.83;;
15454;SDS011;21057;51.024;7.540;2023-04-24T07:10:13;25.57;;;23.80;;
15454;SDS011;21057;51.024;7.540;2023-04-24T07:12:40;25.53;;;23.93;;
15454;SDS011;21057;51.024;7.540;2023-04-24T07:15:13;26.17;;;24.13;;
15454;SDS011;21057;51.024;7.540;2023-04-24T07:17:41;24.93;;;23.23;;
15454;SDS011;21057;51.024;7.540;2023-04-24T07:20:09;25.77;;;24.03;;
15454;SDS011;21057;51.024;7.540;2023-04-24T07:22:43;27.03;;;25.30;;
15454;SDS011;21057;51.024;7.540;2023-04-24T07:25:10;25.17;;;23.63;;
15454;SDS011;21057;51.024;7.540;2023-04-24T07:27:48;26.33;;;24.63;;
15454;SDS011;21057;51.024;7.540;2023-04-24T07:30:15;26.67;;;24.90;;
15454;SDS011;21057;51.024;7.540;2023-04-24T07:32:42;26.63;;;24.93;;
15454;SDS011;21057;51.024;7.540;2023-04-24T07:35:13;26.10;;;24.43;;
15454;SDS011;21057;51.024;7.540;2023-04-24T07:37:40;26.80;;;25.10;;
15454;SDS011;21057;51.024;7.540;2023-04-24T07:40:11;26.63;;;24.83;;
15454;SDS011;21057;51.024;7.540;2023-04-24T07:42:45;25.97;;;24.27;;
15454;SDS011;21057;51.024;7.540;2023-04-24T07:45:29;26.53;;;24.87;;
15454;SDS011;21057;51.024;7.540;2023-04-24T07:47:58;25.27;;;23.67;;
15454;SDS011;21057;51.024;7.540;2023-04-24T07:50:25;25.50;;;23.80;;
15454;SDS011;21057;51.024;7.540;2023-04-24T07:52:52;24.53;;;22.93;;
15454;SDS011;21057;51.024;7.540;2023-04-24T07:55:31;24.73;;;23.20;;
15454;SDS011;21057;51.024;7.540;2023-04-24T07:58:14;23.97;;;22.40;;
15454;SDS011;21057;51.024;7.540;2023-04-24T08:00:46;24.20;;;22.60;;
15454;SDS011;21057;51.024;7.540;2023-04-24T08:05:51;24.80;;;23.23;;
15454;SDS011;21057;51.024;7.540;2023-04-24T08:08:19;24.23;;;22.73;;
15454;SDS011;21057;51.024;7.540;2023-04-24T08:10:47;24.10;;;22.70;;
15454;SDS011;21057;51.024;7.540;2023-04-24T08:13:15;24.80;;;23.37;;
15454;SDS011;21057;51.024;7.540;2023-04-24T08:15:42;24.23;;;22.83;;
15454;SDS011;21057;51.024;7.540;2023-04-24T08:18:10;24.37;;;22.97;;
15454;SDS011;21057;51.024;7.540;2023-04-24T08:20:38;25.20;;;23.70;;
15454;SDS011;21057;51.024;7.540;2023-04-24T08:23:05;25.17;;;23.77;;
15454;SDS011;21057;51.024;7.540;2023-04-24T08:25:32;25.10;;;23.70;;
15454;SDS011;21057;51.024;7.540;2023-04-24T08:28:10;27.67;;;26.17;;
15454;SDS011;21057;51.024;7.540;2023-04-24T08:30:37;27.87;;;26.37;;
15454;SDS011;21057;51.024;7.540;2023-04-24T08:33:04;24.70;;;23.30;;
15454;SDS011;21057;51.024;7.540;2023-04-24T08:35:34;24.50;;;23.10;;
15454;SDS011;21057;51.024;7.540;2023-04-24T08:38:01;25.30;;;23.90;;
15454;SDS011;21057;51.024;7.540;2023-04-24T08:40:28;24.63;;;23.23;;
15454;SDS011;21057;51.024;7.540;2023-04-24T08:42:55;25.27;;;23.87;;
15454;SDS011;21057;51.024;7.540;2023-04-24T08:45:23;23.90;;;22.60;;
15454;SDS011;21057;51.024;7.540;2023-04-24T08:47:57;24.60;;;23.30;;
15454;SDS011;21057;51.024;7.540;2023-04-24T08:50:24;24.80;;;23.40;;
15454;SDS011;21057;51.024;7.540;2023-04-24T08:52:56;25.97;;;24.57;;
15454;SDS011;21057;51.024;7.540;2023-04-24T08:55:24;25.30;;;23.90;;
15454;SDS011;21057;51.024;7.540;2023-04-24T08:57:53;26.00;;;24.50;;
15454;SDS011;21057;51.024;7.540;2023-04-24T09:00:21;25.90;;;24.50;;
15454;SDS011;21057;51.024;7.540;2023-04-24T09:02:49;24.73;;;23.33;;
15454;SDS011;21057;51.024;7.540;2023-04-24T09:05:16;25.80;;;24.30;;
15454;SDS011;21057;51.024;7.540;2023-04-24T09:07:44;25.60;;;24.10;;
15454;SDS011;21057;51.024;7.540;2023-04-24T09:10:15;26.50;;;25.00;;
15454;SDS011;21057;51.024;7.540;2023-04-24T09:12:42;26.00;;;24.50;;
15454;SDS011;21057;51.024;7.540;2023-04-24T09:15:11;26.00;;;24.50;;
15454;SDS011;21057;51.024;7.540;2023-04-24T09:17:38;25.80;;;24.30;;
15454;SDS011;21057;51.024;7.540;2023-04-24T09:20:05;27.33;;;25.73;;
15454;SDS011;21057;51.024;7.540;2023-04-24T09:22:34;26.47;;;24.97;;
15454;SDS011;21057;51.024;7.540;2023-04-24T09:25:05;26.33;;;24.73;;
15454;SDS011;21057;51.024;7.540;2023-04-24T09:27:35;25.47;;;24.00;;
15454;SDS011;21057;51.024;7.540;2023-04-24T09:30:02;25.40;;;24.00;;
15454;SDS011;21057;51.024;7.540;2023-04-24T09:32:31;24.80;;;23.40;;
15454;SDS011;21057;51.024;7.540;2023-04-24T09:35:05;24.40;;;23.00;;
15454;SDS011;21057;51.024;7.540;2023-04-24T09:37:42;25.20;;;23.80;;
15454;SDS011;21057;51.024;7.540;2023-04-24T09:40:10;25.07;;;23.60;;
15454;SDS011;21057;51.024;7.540;2023-04-24T09:42:40;24.87;;;23.47;;
15454;SDS011;21057;51.024;7.540;2023-04-24T09:45:11;24.77;;;23.37;;
15454;SDS011;21057;51.024;7.540;2023-04-24T09:47:46;23.93;;;22.50;;
15454;SDS011;21057;51.024;7.540;2023-04-24T09:50:19;24.00;;;22.60;;
15454;SDS011;21057;51.024;7.540;2023-04-24T09:52:55;25.40;;;23.90;;
15454;SDS011;21057;51.024;7.540;2023-04-24T09:55:23;25.13;;;23.63;;
15454;SDS011;21057;51.024;7.540;2023-04-24T09:57:54;25.80;;;24.20;;
15454;SDS011;21057;51.024;7.540;2023-04-24T10:00:23;25.63;;;24.13;;
15454;SDS011;21057;51.024;7.540;2023-04-24T10:02:59;24.27;;;22.87;;
15454;SDS011;21057;51.024;7.540;2023-04-24T10:05:34;24.10;;;22.60;;
15454;SDS011;21057;51.024;7.540;2023-04-24T10:08:04;24.03;;;22.63;;
15454;SDS011;21057;51.024;7.540;2023-04-24T10:10:36;24.57;;;23.07;;
15454;SDS011;21057;51.024;7.540;2023-04-24T10:13:06;24.70;;;23.20;;
15454;SDS011;21057;51.024;7.540;2023-04-24T10:15:42;24.90;;;23.40;;
15454;SDS011;21057;51.024;7.540;2023-04-24T10:18:17;24.50;;;23.07;;
15454;SDS011;21057;51.024;7.540;2023-04-24T10:20:46;24.50;;;23.10;;
15454;SDS011;21057;51.024;7.540;2023-04-24T10:23:13;24.50;;;23.03;;
15454;SDS011;21057;51.024;7.540;2023-04-24T10:25:44;24.37;;;22.97;;
15454;SDS011;21057;51.024;7.540;2023-04-24T10:28:24;24.10;;;22.70;;
15454;SDS011;21057;51.024;7.540;2023-04-24T10:30:53;23.90;;;22.60;;
15454;SDS011;21057;51.024;7.540;2023-04-24T10:33:21;25.27;;;23.87;;
15454;SDS011;21057;51.024;7.540;2023-04-24T10:35:50;25.20;;;23.80;;
15454;SDS011;21057;51.024;7.540;2023-04-24T10:38:18;26.03;;;24.43;;
15454;SDS011;21057;51.024;7.540;2023-04-24T10:43:45;24.03;;;22.53;;
15454;SDS011;21057;51.024;7.540;2023-04-24T10:46:16;23.80;;;22.40;;
15454;SDS011;21057;51.024;7.540;2023-04-24T10:48:51;24.50;;;23.00;;
15454;SDS011;21057;51.024;7.540;2023-04-24T10:51:42;24.67;;;23.17;;
15454;SDS011;21057;51.024;7.540;2023-04-24T10:54:23;25.77;;;24.07;;
15454;SDS011;21057;51.024;7.540;2023-04-24T10:56:51;25.90;;;24.30;;
15454;SDS011;21057;51.024;7.540;2023-04-24T10:59:26;26.03;;;24.33;;
15454;SDS011;21057;51.024;7.540;2023-04-24T11:02:03;25.47;;;23.90;;
15454;SDS011;21057;51.024;7.540;2023-04-24T11:04:34;27.50;;;25.77;;
15454;SDS011;21057;51.024;7.540;2023-04-24T11:07:02;28.43;;;26.63;;
15454;SDS011;21057;51.024;7.540;2023-04-24T11:09:35;27.23;;;25.60;;
15454;SDS011;21057;51.024;7.540;2023-04-24T11:12:08;27.30;;;25.37;;
15454;SDS011;21057;51.024;7.540;2023-04-24T11:17:59;27.53;;;25.60;;
15454;SDS011;21057;51.024;7.540;2023-04-24T11:20:27;28.60;;;26.80;;
15454;SDS011;21057;51.024;7.540;2023-04-24T11:22:54;29.40;;;27.50;;
15454;SDS011;21057;51.024;7.540;2023-04-24T11:25:24;30.10;;;28.47;;
15454;SDS011;21057;51.024;7.540;2023-04-24T11:28:02;28.90;;;27.17;;
15454;SDS011;21057;51.024;7.540;2023-04-24T11:30:31;28.43;;;26.73;;
15454;SDS011;21057;51.024;7.540;2023-04-24T11:33:04;30.43;;;28.40;;
15454;SDS011;21057;51.024;7.540;2023-04-24T11:35:39;28.40;;;26.37;;
15454;SDS011;21057;51.024;7.540;2023-04-24T11:38:13;29.40;;;27.40;;
15454;SDS011;21057;51.024;7.540;2023-04-24T11:40:41;28.40;;;26.70;;
15454;SDS011;21057;51.024;7.540;2023-04-24T11:43:10;27.23;;;25.33;;
15454;SDS011;21057;51.024;7.540;2023-04-24T11:45:47;27.20;;;25.50;;
15454;SDS011;21057;51.024;7.540;2023-04-24T11:48:19;26.10;;;24.23;;
15454;SDS011;21057;51.024;7.540;2023-04-24T11:50:47;25.27;;;23.77;;
15454;SDS011;21057;51.024;7.540;2023-04-24T11:53:16;25.87;;;24.27;;
15454;SDS011;21057;51.024;7.540;2023-04-24T11:55:47;26.83;;;25.33;;
15454;SDS011;21057;51.024;7.540;2023-04-24T11:58:16;25.73;;;24.13;;
15454;SDS011;21057;51.024;7.540;2023-04-24T12:00:57;25.63;;;23.67;;
15454;SDS011;21057;51.024;7.540;2023-04-24T12:03:43;25.67;;;24.00;;
15454;SDS011;21057;51.024;7.540;2023-04-24T12:06:19;25.07;;;23.57;;
15454;SDS011;21057;51.024;7.540;2023-04-24T12:08:48;26.27;;;24.67;;
15454;SDS011;21057;51.024;7.540;2023-04-24T12:13:46;25.67;;;24.00;;
15454;SDS011;21057;51.024;7.540;2023-04-24T12:16:17;24.67;;;23.17;;
15454;SDS011;21057;51.024;7.540;2023-04-24T12:18:48;24.53;;;23.00;;
15454;SDS011;21057;51.024;7.540;2023-04-24T12:21:45;25.00;;;23.20;;
15454;SDS011;21057;51.024;7.540;2023-04-24T12:24:54;24.93;;;23.43;;
15454;SDS011;21057;51.024;7.540;2023-04-24T12:27:22;26.43;;;24.73;;
15454;SDS011;21057;51.024;7.540;2023-04-24T12:29:56;25.30;;;23.70;;
15454;SDS011;21057;51.024;7.540;2023-04-24T12:32:24;26.07;;;24.23;;
15454;SDS011;21057;51.024;7.540;2023-04-24T12:34:53;24.50;;;22.90;;
15454;SDS011;21057;51.024;7.540;2023-04-24T12:37:22;23.97;;;22.37;;
15454;SDS011;21057;51.024;7.540;2023-04-24T12:40:04;26.43;;;24.27;;
15454;SDS011;21057;51.024;7.540;2023-04-24T12:42:32;23.43;;;21.83;;
15454;SDS011;21057;51.024;7.540;2023-04-24T12:45:01;23.80;;;22.20;;
15454;SDS011;21057;51.024;7.540;2023-04-24T12:47:31;23.10;;;21.60;;
15454;SDS011;21057;51.024;7.540;2023-04-24T12:50:00;23.80;;;22.07;;
15454;SDS011;21057;51.024;7.540;2023-04-24T12:52:28;23.63;;;22.07;;
15454;SDS011;21057;51.024;7.540;2023-04-24T12:54:58;23.93;;;21.93;;
15454;SDS011;21057;51.024;7.540;2023-04-24T12:57:27;24.90;;;22.33;;
15454;SDS011;21057;51.024;7.540;2023-04-24T12:59:57;24.27;;;22.30;;
15454;SDS011;21057;51.024;7.540;2023-04-24T13:02:31;23.53;;;21.87;;
15454;SDS011;21057;51.024;7.540;2023-04-24T13:05:06;24.30;;;22.27;;
15454;SDS011;21057;51.024;7.540;2023-04-24T13:07:36;23.90;;;22.10;;
15454;SDS011;21057;51.024;7.540;2023-04-24T13:10:04;22.13;;;20.63;;
15454;SDS011;21057;51.024;7.540;2023-04-24T13:12:35;24.70;;;22.47;;
15454;SDS011;21057;51.024;7.540;2023-04-24T13:15:02;22.90;;;21.30;;
15454;SDS011;21057;51.024;7.540;2023-04-24T13:17:31;23.40;;;21.70;;
15454;SDS011;21057;51.024;7.540;2023-04-24T13:20:00;24.37;;;22.57;;
15454;SDS011;21057;51.024;7.540;2023-04-24T13:22:29;23.77;;;22.03;;
15454;SDS011;21057;51.024;7.540;2023-04-24T13:24:58;23.50;;;21.80;;
15454;SDS011;21057;51.024;7.540;2023-04-24T13:27:26;24.00;;;22.37;;
15454;SDS011;21057;51.024;7.540;2023-04-24T13:29:54;23.77;;;22.13;;
15454;SDS011;21057;51.024;7.540;2023-04-24T13:32:22;24.83;;;23.17;;
15454;SDS011;21057;51.024;7.540;2023-04-24T13:34:50;25.03;;;23.33;;
15454;SDS011;21057;51.024;7.540;2023-04-24T13:37:18;26.03;;;24.13;;
15454;SDS011;21057;51.024;7.540;2023-04-24T13:39:54;24.60;;;23.00;;
15454;SDS011;21057;51.024;7.540;2023-04-24T13:42:22;24.60;;;22.93;;
15454;SDS011;21057;51.024;7.540;2023-04-24T13:44:49;24.10;;;22.50;;
15454;SDS011;21057;51.024;7.540;2023-04-24T13:47:17;24.57;;;22.60;;
15454;SDS011;21057;51.024;7.540;2023-04-24T13:49:49;24.83;;;22.93;;
15454;SDS011;21057;51.024;7.540;2023-04-24T13:52:25;24.37;;;22.47;;
15454;SDS011;21057;51.024;7.540;2023-04-24T13:54:57;24.33;;;22.73;;
15454;SDS011;21057;51.024;7.540;2023-04-24T13:57:30;23.60;;;22.00;;
15454;SDS011;21057;51.024;7.540;2023-04-24T14:00:04;23.47;;;21.53;;
15454;SDS011;21057;51.024;7.540;2023-04-24T14:02:41;23.67;;;21.97;;
15454;SDS011;21057;51.024;7.540;2023-04-24T14:05:12;22.83;;;21.37;;
15454;SDS011;21057;51.024;7.540;2023-04-24T14:07:40;24.00;;;22.23;;
15454;SDS011;21057;51.024;7.540;2023-04-24T14:10:14;25.23;;;23.43;;
15454;SDS011;21057;51.024;7.540;2023-04-24T14:15:32;24.00;;;22.40;;
15454;SDS011;21057;51.024;7.540;2023-04-24T14:17:59;23.90;;;22.00;;
15454;SDS011;21057;51.024;7.540;2023-04-24T14:20:37;23.13;;;21.30;;
15454;SDS011;21057;51.024;7.540;2023-04-24T14:23:03;22.67;;;21.13;;
15454;SDS011;21057;51.024;7.540;2023-04-24T14:25:32;22.70;;;21.20;;
15454;SDS011;21057;51.024;7.540;2023-04-24T14:28:00;22.77;;;21.27;;
15454;SDS011;21057;51.024;7.540;2023-04-24T14:30:29;23.00;;;21.40;;
15454;SDS011;21057;51.024;7.540;2023-04-24T14:32:58;23.73;;;21.93;;
15454;SDS011;21057;51.024;7.540;2023-04-24T14:35:25;23.03;;;21.53;;
15454;SDS011;21057;51.024;7.540;2023-04-24T14:37:54;22.93;;;21.33;;
15454;SDS011;21057;51.024;7.540;2023-04-24T14:40:21;25.73;;;23.80;;
15454;SDS011;21057;51.024;7.540;2023-04-24T14:43:02;25.10;;;23.50;;
15454;SDS011;21057;51.024;7.540;2023-04-24T14:45:29;24.50;;;22.80;;
15454;SDS011;21057;51.024;7.540;2023-04-24T14:47:58;23.90;;;22.10;;
15454;SDS011;21057;51.024;7.540;2023-04-24T14:50:25;24.07;;;22.27;;
15454;SDS011;21057;51.024;7.540;2023-04-24T14:52:55;24.00;;;21.93;;
15454;SDS011;21057;51.024;7.540;2023-04-24T14:55:29;23.70;;;21.70;;
15454;SDS011;21057;51.024;7.540;2023-04-24T14:57:57;22.83;;;21.33;;
15454;SDS011;21057;51.024;7.540;2023-04-24T15:00:26;23.67;;;21.90;;